createdAt,value
2023-03-30T00:03:59.531Z,3.25
2023-03-30T00:09:06.421Z,3.03
2023-03-30T00:14:09.561Z,3.10
2023-03-30T00:19:13.939Z,3.25
2023-03-30T00:24:17.029Z,2.38
2023-03-30T00:29:20.601Z,2.70
2023-03-30T00:34:25.842Z,2.60
2023-03-30T00:39:29.400Z,2.50
2023-03-30T00:45:07.650Z,3.20
2023-03-30T00:50:12.938Z,2.65
2023-03-30T00:55:18.485Z,2.70
2023-03-30T01:00:24.058Z,2.63
2023-03-30T01:05:28.649Z,2.53
2023-03-30T01:10:33.160Z,3.00
2023-03-30T01:15:43.271Z,2.70
2023-03-30T01:21:24.243Z,2.50
2023-03-30T01:26:54.000Z,2.45
2023-03-30T01:32:35.695Z,2.75
2023-03-30T01:37:56.458Z,2.58
2023-03-30T01:43:17.080Z,2.75
2023-03-30T01:48:45.642Z,2.42
2023-03-30T01:54:04.407Z,2.40
2023-03-30T01:59:34.070Z,3.00
2023-03-30T02:04:41.146Z,2.53
2023-03-30T02:09:47.445Z,3.00
2023-03-30T02:14:52.898Z,3.30
2023-03-30T02:19:58.427Z,4.63
2023-03-30T02:25:03.169Z,2.50
2023-03-30T02:30:08.366Z,2.38
2023-03-30T02:35:40.201Z,3.15
2023-03-30T02:41:14.854Z,2.67
2023-03-30T02:46:21.005Z,2.60
2023-03-30T02:51:50.577Z,2.10
2023-03-30T02:56:58.465Z,2.50
2023-03-30T03:02:16.203Z,2.22
2023-03-30T03:07:28.222Z,1.80
2023-03-30T03:12:32.079Z,1.95
2023-03-30T03:17:36.188Z,2.03
2023-03-30T03:22:43.672Z,2.08
2023-03-30T03:27:47.575Z,1.92
2023-03-30T03:32:57.420Z,1.88
2023-03-30T03:38:03.829Z,1.95
2023-03-30T03:43:07.202Z,2.13
2023-03-30T03:48:10.480Z,2.08
2023-03-30T03:53:19.864Z,1.90
2023-03-30T03:58:25.677Z,2.03
2023-03-30T04:03:29.794Z,2.17
2023-03-30T04:08:33.454Z,1.98
2023-03-30T04:13:53.768Z,1.92
2023-03-30T04:19:13.022Z,2.20
2023-03-30T04:24:36.030Z,2.08
2023-03-30T04:30:02.679Z,1.60
2023-03-30T04:35:24.501Z,1.70
2023-03-30T04:41:06.718Z,1.98
2023-03-30T04:46:37.387Z,1.48
2023-03-30T04:51:59.497Z,1.67
2023-03-30T04:57:22.788Z,1.88
2023-03-30T05:02:37.986Z,1.90
2023-03-30T05:07:54.465Z,1.75
2023-03-30T05:13:19.784Z,1.65
2023-03-30T05:18:32.001Z,2.28
2023-03-30T05:23:53.809Z,2.05
2023-03-30T05:29:25.322Z,1.67
2023-03-30T05:34:37.570Z,2.03
2023-03-30T05:40:00.215Z,1.80
2023-03-30T05:45:20.675Z,1.50
2023-03-30T05:51:02.671Z,2.00
2023-03-30T05:56:27.694Z,2.25
2023-03-30T06:01:53.476Z,2.03
2023-03-30T06:06:57.241Z,1.50
2023-03-30T06:12:00.795Z,1.48
2023-03-30T06:17:09.103Z,2.50
2023-03-30T06:22:12.456Z,3.30
2023-03-30T06:27:22.243Z,4.18
2023-03-30T06:32:27.376Z,3.20
2023-03-30T06:37:37.198Z,2.78
2023-03-30T06:42:44.362Z,2.70
2023-03-30T06:48:03.915Z,2.45
2023-03-30T06:53:10.222Z,3.17
2023-03-30T06:58:19.181Z,3.03
2023-03-30T07:03:24.221Z,3.15
2023-03-30T07:08:43.410Z,2.92
2023-03-30T07:13:51.805Z,2.25
2023-03-30T07:18:56.178Z,2.63
2023-03-30T07:24:03.603Z,4.97
2023-03-30T07:29:13.235Z,2.53
2023-03-30T07:34:21.597Z,2.60
2023-03-30T07:39:33.438Z,2.25
2023-03-30T07:44:40.838Z,2.00
2023-03-30T07:49:51.711Z,3.10
2023-03-30T07:54:56.782Z,3.88
2023-03-30T08:00:10.926Z,4.75
2023-03-30T08:05:40.981Z,3.88
2023-03-30T08:10:55.317Z,3.80
2023-03-30T08:16:01.033Z,3.75
2023-03-30T08:21:05.375Z,3.40
2023-03-30T08:26:09.127Z,3.15
2023-03-30T08:31:13.099Z,2.40
2023-03-30T08:36:17.405Z,2.45
2023-03-30T08:41:29.362Z,2.70
2023-03-30T08:46:34.941Z,3.28
2023-03-30T08:51:39.704Z,1.77
2023-03-30T08:56:56.287Z,2.75
2023-03-30T09:02:11.728Z,2.83
2023-03-30T09:07:22.848Z,2.70
2023-03-30T09:12:34.600Z,1.83
2023-03-30T09:17:47.074Z,3.60
2023-03-30T09:22:52.850Z,4.70
2023-03-30T09:33:37.541Z,1.38
2023-03-30T09:38:43.321Z,2.22
2023-03-30T09:43:48.078Z,1.50
2023-03-30T09:48:52.987Z,1.90
2023-03-30T09:54:07.591Z,1.77
2023-03-30T09:59:46.152Z,1.80
2023-03-30T10:04:53.216Z,1.75
2023-03-30T10:10:00.068Z,1.98
2023-03-30T10:15:04.907Z,1.92
2023-03-30T10:20:25.871Z,1.95
2023-03-30T10:25:31.843Z,1.15
2023-03-30T10:30:36.781Z,1.52
2023-03-30T10:35:41.676Z,1.00
2023-03-30T10:40:47.516Z,1.25
2023-03-30T10:45:54.894Z,1.10
2023-03-30T10:51:26.248Z,2.00
2023-03-30T10:57:04.416Z,2.22
2023-03-30T11:02:40.344Z,1.20
2023-03-30T11:07:55.251Z,1.00
2023-03-30T11:13:12.067Z,1.40
2023-03-30T11:18:36.556Z,1.25
2023-03-30T11:24:00.299Z,1.65
2023-03-30T11:29:14.425Z,1.10
2023-03-30T11:34:55.224Z,1.27
2023-03-30T11:40:18.953Z,0.95
2023-03-30T11:45:45.405Z,1.58
2023-03-30T11:50:58.920Z,1.40
2023-03-30T11:56:12.329Z,1.95
2023-03-30T12:01:19.402Z,1.60
2023-03-30T12:06:35.188Z,1.25
2023-03-30T12:12:04.200Z,1.70
2023-03-30T12:17:35.545Z,1.20
2023-03-30T12:22:53.670Z,2.05
2023-03-30T12:27:59.755Z,1.08
2023-03-30T12:33:13.346Z,1.60
2023-03-30T12:38:22.128Z,1.25
2023-03-30T12:43:43.957Z,1.48
2023-03-30T12:49:22.945Z,1.27
2023-03-30T12:54:32.616Z,1.27
2023-03-30T12:59:56.648Z,1.38
2023-03-30T13:05:00.634Z,1.67
2023-03-30T13:10:30.207Z,1.55
2023-03-30T13:15:58.229Z,1.90
2023-03-30T13:21:18.221Z,1.50
2023-03-30T13:26:34.450Z,2.17
2023-03-30T13:31:52.010Z,2.42
2023-03-30T13:37:22.417Z,2.13
2023-03-30T13:42:51.717Z,2.83
2023-03-30T13:48:12.290Z,3.10
2023-03-30T13:53:18.047Z,2.45
2023-03-30T13:58:35.541Z,2.30
2023-03-30T14:03:48.071Z,2.85
2023-03-30T14:09:14.878Z,2.47
2023-03-30T14:14:28.531Z,3.13
2023-03-30T14:19:47.713Z,2.58
2023-03-30T14:25:03.770Z,2.40
2023-03-30T14:30:24.018Z,2.25
2023-03-30T14:35:29.802Z,3.10
2023-03-30T14:40:39.941Z,2.67
2023-03-30T14:45:44.690Z,2.20
2023-03-30T14:50:50.344Z,2.83
2023-03-30T14:55:58.349Z,2.72
2023-03-30T15:01:09.262Z,2.58
2023-03-30T15:06:20.007Z,2.67
2023-03-30T15:11:28.072Z,2.80
2023-03-30T15:16:36.018Z,2.65
2023-03-30T15:21:40.940Z,3.10
2023-03-30T15:26:48.416Z,2.17
2023-03-30T15:32:15.296Z,1.92
2023-03-30T15:37:23.381Z,2.10
2023-03-30T15:42:33.121Z,2.30
2023-03-30T15:47:37.000Z,1.77
2023-03-30T15:52:45.591Z,1.75
2023-03-30T15:57:52.364Z,1.90
2023-03-30T16:03:00.585Z,1.30
2023-03-30T16:08:05.693Z,1.40
2023-03-30T16:13:12.160Z,1.35
2023-03-30T16:18:17.022Z,1.33
2023-03-30T16:23:21.693Z,1.52
2023-03-30T16:28:26.415Z,1.00
2023-03-30T16:33:30.092Z,1.77
2023-03-30T16:38:33.921Z,2.03
2023-03-30T16:43:38.627Z,1.58
2023-03-30T16:48:42.716Z,2.03
2023-03-30T16:53:48.057Z,1.77
2023-03-30T16:58:51.846Z,1.70
2023-03-30T17:03:55.898Z,1.73
2023-03-30T17:08:59.781Z,1.95
2023-03-30T17:14:03.399Z,2.00
2023-03-30T17:19:14.574Z,2.22
2023-03-30T17:24:18.140Z,2.45
2023-03-30T17:29:21.728Z,2.83
2023-03-30T17:34:25.129Z,2.20
2023-03-30T17:39:28.728Z,1.77
2023-03-30T17:44:34.217Z,2.10
2023-03-30T17:49:38.489Z,3.30
2023-03-30T17:54:43.009Z,5.43
2023-03-30T17:59:46.515Z,3.05
2023-03-30T18:04:51.226Z,4.20
2023-03-30T18:09:54.983Z,3.28
2023-03-30T18:14:58.212Z,2.92
2023-03-30T18:20:02.494Z,2.42
2023-03-30T18:25:06.396Z,3.22
2023-03-30T18:30:16.735Z,2.95
2023-03-30T18:35:22.022Z,2.42
2023-03-30T18:40:44.257Z,2.35
2023-03-30T18:45:49.964Z,3.05
2023-03-30T18:50:56.094Z,2.40
2023-03-30T18:56:01.286Z,2.60
2023-03-30T19:01:07.162Z,2.55
2023-03-30T19:06:14.465Z,3.17
2023-03-30T19:16:24.546Z,3.65
2023-03-30T19:21:28.649Z,3.17
2023-03-30T19:26:32.420Z,2.97
2023-03-30T19:31:36.925Z,2.53
2023-03-30T19:36:40.251Z,2.30
2023-03-30T19:41:44.294Z,2.30
2023-03-30T19:46:49.144Z,2.70
2023-03-30T19:51:53.648Z,3.00
2023-03-30T19:56:58.058Z,2.78
2023-03-30T20:02:01.933Z,2.47
2023-03-30T20:07:06.758Z,2.35
2023-03-30T20:12:11.004Z,3.72
2023-03-30T20:17:15.060Z,3.40
2023-03-30T20:22:18.885Z,2.60
2023-03-30T20:27:22.087Z,3.00
2023-03-30T20:32:26.460Z,4.10
2023-03-30T20:37:29.665Z,4.03
2023-03-30T20:42:34.241Z,2.60
2023-03-30T20:47:38.402Z,3.53
2023-03-30T20:52:41.618Z,2.50
2023-03-30T20:57:44.842Z,2.53
2023-03-30T21:02:48.547Z,2.72
2023-03-30T21:07:54.348Z,3.80
2023-03-30T21:12:58.635Z,4.72
2023-03-30T21:18:02.473Z,4.10
2023-03-30T21:23:06.303Z,4.82
2023-03-30T21:28:09.921Z,3.42
2023-03-30T21:33:13.612Z,3.45
2023-03-30T21:38:17.702Z,3.88
2023-03-30T21:43:21.382Z,4.22
2023-03-30T21:48:26.007Z,3.42
2023-03-30T21:53:31.441Z,3.30
2023-03-30T21:58:35.529Z,2.35
2023-03-30T22:03:39.122Z,2.03
2023-03-30T22:08:45.513Z,2.28
2023-03-30T22:13:50.189Z,2.28
2023-03-30T22:18:54.938Z,2.40
2023-03-30T22:23:58.546Z,2.35
2023-03-30T22:29:02.308Z,2.40
2023-03-30T22:34:06.210Z,2.22
2023-03-30T22:39:10.952Z,2.92
2023-03-30T22:44:14.157Z,2.30
2023-03-30T22:49:17.992Z,2.30
2023-03-30T22:54:22.838Z,2.08
2023-03-30T22:59:27.091Z,2.67
2023-03-30T23:04:31.301Z,2.55
2023-03-30T23:09:34.942Z,2.53
2023-03-30T23:14:39.546Z,2.53
2023-03-30T23:19:46.198Z,2.13
2023-03-30T23:24:50.115Z,2.60
2023-03-30T23:29:53.816Z,2.40
2023-03-30T23:34:57.527Z,2.67
2023-03-30T23:40:04.089Z,2.47
2023-03-30T23:45:08.980Z,2.60
2023-03-30T23:50:12.569Z,2.53
2023-03-30T23:55:16.313Z,2.33
